sensor_id;sensor_type;location;lat;lon;timestamp;P1;durP1;ratioP1;P2;durP2;ratioP2
5199;SDS011;2619;47.868;11.892;2023-04-15T00:00:42;5.20;;;2.00;;
5199;SDS011;2619;47.868;11.892;2023-04-15T00:03:08;7.67;;;2.27;;
5199;SDS011;2619;47.868;11.892;2023-04-15T00:05:33;4.10;;;2.57;;
5199;SDS011;2619;47.868;11.892;2023-04-15T00:07:59;5.43;;;2.23;;
5199;SDS011;2619;47.868;11.892;2023-04-15T00:10:25;11.03;;;2.27;;
5199;SDS011;2619;47.868;11.892;2023-04-15T00:12:51;4.63;;;1.97;;
5199;SDS011;2619;47.868;11.892;2023-04-15T00:15:17;7.67;;;2.73;;
5199;SDS011;2619;47.868;11.892;2023-04-15T00:17:43;4.30;;;2.10;;
5199;SDS011;2619;47.868;11.892;2023-04-15T00:20:10;3.43;;;2.23;;
5199;SDS011;2619;47.868;11.892;2023-04-15T00:22:35;3.30;;;1.97;;
5199;SDS011;2619;47.868;11.892;2023-04-15T00:25:01;3.73;;;2.27;;
5199;SDS011;2619;47.868;11.892;2023-04-15T00:27:27;5.23;;;2.00;;
5199;SDS011;2619;47.868;11.892;2023-04-15T00:29:53;13.90;;;2.87;;
5199;SDS011;2619;47.868;11.892;2023-04-15T00:32:19;5.80;;;2.10;;
5199;SDS011;2619;47.868;11.892;2023-04-15T00:34:44;3.03;;;2.00;;
5199;SDS011;2619;47.868;11.892;2023-04-15T00:37:10;4.63;;;2.13;;
5199;SDS011;2619;47.868;11.892;2023-04-15T00:39:36;4.57;;;2.20;;
5199;SDS011;2619;47.868;11.892;2023-04-15T00:42:03;2.63;;;1.67;;
5199;SDS011;2619;47.868;11.892;2023-04-15T00:44:29;4.70;;;2.63;;
5199;SDS011;2619;47.868;11.892;2023-04-15T00:46:54;5.17;;;1.83;;
5199;SDS011;2619;47.868;11.892;2023-04-15T00:49:21;7.43;;;2.70;;
5199;SDS011;2619;47.868;11.892;2023-04-15T00:51:47;4.90;;;1.90;;
5199;SDS011;2619;47.868;11.892;2023-04-15T00:54:13;4.60;;;1.67;;
5199;SDS011;2619;47.868;11.892;2023-04-15T00:56:40;3.00;;;1.50;;
5199;SDS011;2619;47.868;11.892;2023-04-15T00:59:06;6.43;;;2.10;;
5199;SDS011;2619;47.868;11.892;2023-04-15T01:01:33;3.70;;;1.93;;
5199;SDS011;2619;47.868;11.892;2023-04-15T01:04:00;7.10;;;2.03;;
5199;SDS011;2619;47.868;11.892;2023-04-15T01:06:27;4.23;;;1.90;;
5199;SDS011;2619;47.868;11.892;2023-04-15T01:08:53;3.73;;;2.20;;
5199;SDS011;2619;47.868;11.892;2023-04-15T01:11:19;3.90;;;1.50;;
5199;SDS011;2619;47.868;11.892;2023-04-15T01:13:48;3.10;;;1.70;;
5199;SDS011;2619;47.868;11.892;2023-04-15T01:16:15;3.30;;;2.00;;
5199;SDS011;2619;47.868;11.892;2023-04-15T01:18:41;3.90;;;2.30;;
5199;SDS011;2619;47.868;11.892;2023-04-15T01:21:07;4.83;;;2.03;;
5199;SDS011;2619;47.868;11.892;2023-04-15T01:23:34;6.00;;;2.07;;
5199;SDS011;2619;47.868;11.892;2023-04-15T01:26:03;6.67;;;2.10;;
5199;SDS011;2619;47.868;11.892;2023-04-15T01:28:36;6.07;;;2.20;;
5199;SDS011;2619;47.868;11.892;2023-04-15T01:31:05;8.03;;;2.60;;
5199;SDS011;2619;47.868;11.892;2023-04-15T01:33:31;8.33;;;2.40;;
5199;SDS011;2619;47.868;11.892;2023-04-15T01:35:57;3.57;;;2.23;;
5199;SDS011;2619;47.868;11.892;2023-04-15T01:38:24;4.50;;;2.03;;
5199;SDS011;2619;47.868;11.892;2023-04-15T01:40:50;3.83;;;2.10;;
5199;SDS011;2619;47.868;11.892;2023-04-15T01:43:16;5.10;;;2.10;;
5199;SDS011;2619;47.868;11.892;2023-04-15T01:45:43;4.73;;;1.87;;
5199;SDS011;2619;47.868;11.892;2023-04-15T01:48:08;6.60;;;2.30;;
5199;SDS011;2619;47.868;11.892;2023-04-15T01:50:34;4.43;;;2.13;;
5199;SDS011;2619;47.868;11.892;2023-04-15T01:53:00;10.10;;;1.77;;
5199;SDS011;2619;47.868;11.892;2023-04-15T01:55:26;3.60;;;1.70;;
5199;SDS011;2619;47.868;11.892;2023-04-15T01:57:51;5.73;;;1.90;;
5199;SDS011;2619;47.868;11.892;2023-04-15T02:00:17;4.70;;;1.80;;
5199;SDS011;2619;47.868;11.892;2023-04-15T02:02:43;4.63;;;1.70;;
5199;SDS011;2619;47.868;11.892;2023-04-15T02:05:08;3.67;;;1.97;;
5199;SDS011;2619;47.868;11.892;2023-04-15T02:07:34;5.43;;;2.40;;
5199;SDS011;2619;47.868;11.892;2023-04-15T02:10:01;4.90;;;2.20;;
5199;SDS011;2619;47.868;11.892;2023-04-15T02:12:28;3.27;;;1.50;;
5199;SDS011;2619;47.868;11.892;2023-04-15T02:14:53;4.00;;;1.93;;
5199;SDS011;2619;47.868;11.892;2023-04-15T02:17:19;5.77;;;1.70;;
5199;SDS011;2619;47.868;11.892;2023-04-15T02:19:45;4.97;;;2.30;;
5199;SDS011;2619;47.868;11.892;2023-04-15T02:22:12;4.30;;;1.63;;
5199;SDS011;2619;47.868;11.892;2023-04-15T02:24:42;5.47;;;2.13;;
5199;SDS011;2619;47.868;11.892;2023-04-15T02:27:08;3.27;;;1.77;;
5199;SDS011;2619;47.868;11.892;2023-04-15T02:29:34;4.67;;;1.70;;
5199;SDS011;2619;47.868;11.892;2023-04-15T02:31:59;3.40;;;1.50;;
5199;SDS011;2619;47.868;11.892;2023-04-15T02:34:25;4.13;;;1.57;;
5199;SDS011;2619;47.868;11.892;2023-04-15T02:36:51;3.17;;;1.50;;
5199;SDS011;2619;47.868;11.892;2023-04-15T02:39:21;5.03;;;1.90;;
5199;SDS011;2619;47.868;11.892;2023-04-15T02:41:47;3.97;;;1.60;;
5199;SDS011;2619;47.868;11.892;2023-04-15T02:44:16;5.23;;;1.60;;
5199;SDS011;2619;47.868;11.892;2023-04-15T02:46:44;3.20;;;1.50;;
5199;SDS011;2619;47.868;11.892;2023-04-15T02:49:14;6.00;;;1.77;;
5199;SDS011;2619;47.868;11.892;2023-04-15T02:51:40;6.50;;;2.23;;
5199;SDS011;2619;47.868;11.892;2023-04-15T02:54:06;6.17;;;1.60;;
5199;SDS011;2619;47.868;11.892;2023-04-15T02:56:32;3.57;;;1.67;;
5199;SDS011;2619;47.868;11.892;2023-04-15T02:58:58;7.60;;;1.80;;
5199;SDS011;2619;47.868;11.892;2023-04-15T03:01:24;3.93;;;1.67;;
5199;SDS011;2619;47.868;11.892;2023-04-15T03:03:50;2.77;;;1.70;;
5199;SDS011;2619;47.868;11.892;2023-04-15T03:06:15;5.40;;;1.40;;
5199;SDS011;2619;47.868;11.892;2023-04-15T03:08:41;6.10;;;1.97;;
5199;SDS011;2619;47.868;11.892;2023-04-15T03:11:07;5.70;;;1.80;;
5199;SDS011;2619;47.868;11.892;2023-04-15T03:13:32;6.17;;;2.10;;
5199;SDS011;2619;47.868;11.892;2023-04-15T03:15:58;4.40;;;2.37;;
5199;SDS011;2619;47.868;11.892;2023-04-15T03:18:23;4.00;;;1.60;;
5199;SDS011;2619;47.868;11.892;2023-04-15T03:20:49;4.00;;;1.90;;
5199;SDS011;2619;47.868;11.892;2023-04-15T03:23:15;6.67;;;2.17;;
5199;SDS011;2619;47.868;11.892;2023-04-15T03:25:41;6.07;;;1.83;;
5199;SDS011;2619;47.868;11.892;2023-04-15T03:28:06;4.43;;;1.70;;
5199;SDS011;2619;47.868;11.892;2023-04-15T03:30:32;2.70;;;1.33;;
5199;SDS011;2619;47.868;11.892;2023-04-15T03:32:58;3.53;;;1.60;;
5199;SDS011;2619;47.868;11.892;2023-04-15T03:35:23;5.80;;;2.03;;
5199;SDS011;2619;47.868;11.892;2023-04-15T03:37:49;2.73;;;1.47;;
5199;SDS011;2619;47.868;11.892;2023-04-15T03:40:15;6.07;;;1.70;;
5199;SDS011;2619;47.868;11.892;2023-04-15T03:42:40;3.43;;;1.50;;
5199;SDS011;2619;47.868;11.892;2023-04-15T03:45:06;2.40;;;1.30;;
5199;SDS011;2619;47.868;11.892;2023-04-15T03:47:32;4.77;;;1.67;;
5199;SDS011;2619;47.868;11.892;2023-04-15T03:49:58;5.13;;;1.63;;
5199;SDS011;2619;47.868;11.892;2023-04-15T03:52:23;5.97;;;1.57;;
5199;SDS011;2619;47.868;11.892;2023-04-15T03:54:49;3.80;;;1.33;;
5199;SDS011;2619;47.868;11.892;2023-04-15T03:57:15;4.30;;;1.70;;
5199;SDS011;2619;47.868;11.892;2023-04-15T03:59:40;3.97;;;1.70;;
5199;SDS011;2619;47.868;11.892;2023-04-15T04:02:06;2.50;;;1.40;;
5199;SDS011;2619;47.868;11.892;2023-04-15T04:04:32;2.40;;;1.03;;
5199;SDS011;2619;47.868;11.892;2023-04-15T04:06:57;5.20;;;1.80;;
5199;SDS011;2619;47.868;11.892;2023-04-15T04:09:23;3.10;;;1.60;;
5199;SDS011;2619;47.868;11.892;2023-04-15T04:11:49;6.20;;;1.40;;
5199;SDS011;2619;47.868;11.892;2023-04-15T04:14:15;3.33;;;1.43;;
5199;SDS011;2619;47.868;11.892;2023-04-15T04:16:40;2.33;;;1.40;;
5199;SDS011;2619;47.868;11.892;2023-04-15T04:19:06;2.53;;;1.20;;
5199;SDS011;2619;47.868;11.892;2023-04-15T04:21:32;2.70;;;1.47;;
5199;SDS011;2619;47.868;11.892;2023-04-15T04:23:58;4.07;;;1.20;;
5199;SDS011;2619;47.868;11.892;2023-04-15T04:26:24;5.33;;;1.33;;
5199;SDS011;2619;47.868;11.892;2023-04-15T04:28:50;2.60;;;1.10;;
5199;SDS011;2619;47.868;11.892;2023-04-15T04:31:15;4.30;;;1.37;;
5199;SDS011;2619;47.868;11.892;2023-04-15T04:33:41;5.83;;;1.50;;
5199;SDS011;2619;47.868;11.892;2023-04-15T04:36:07;5.67;;;1.73;;
5199;SDS011;2619;47.868;11.892;2023-04-15T04:38:33;2.30;;;1.30;;
5199;SDS011;2619;47.868;11.892;2023-04-15T04:40:58;5.40;;;1.70;;
5199;SDS011;2619;47.868;11.892;2023-04-15T04:43:24;4.80;;;1.23;;
5199;SDS011;2619;47.868;11.892;2023-04-15T04:45:50;5.40;;;1.90;;
5199;SDS011;2619;47.868;11.892;2023-04-15T04:48:16;5.90;;;2.10;;
5199;SDS011;2619;47.868;11.892;2023-04-15T04:50:41;4.47;;;1.83;;
5199;SDS011;2619;47.868;11.892;2023-04-15T04:53:08;4.13;;;1.70;;
5199;SDS011;2619;47.868;11.892;2023-04-15T04:55:34;3.83;;;2.00;;
5199;SDS011;2619;47.868;11.892;2023-04-15T04:58:01;2.77;;;1.70;;
5199;SDS011;2619;47.868;11.892;2023-04-15T05:00:27;2.93;;;1.33;;
5199;SDS011;2619;47.868;11.892;2023-04-15T05:02:53;4.70;;;1.47;;
5199;SDS011;2619;47.868;11.892;2023-04-15T05:05:18;3.43;;;1.63;;
5199;SDS011;2619;47.868;11.892;2023-04-15T05:07:44;5.20;;;1.40;;
5199;SDS011;2619;47.868;11.892;2023-04-15T05:10:10;3.97;;;1.93;;
5199;SDS011;2619;47.868;11.892;2023-04-15T05:12:35;3.90;;;1.63;;
5199;SDS011;2619;47.868;11.892;2023-04-15T05:15:02;4.13;;;1.90;;
5199;SDS011;2619;47.868;11.892;2023-04-15T05:17:29;3.37;;;1.63;;
5199;SDS011;2619;47.868;11.892;2023-04-15T05:19:55;3.43;;;1.40;;
5199;SDS011;2619;47.868;11.892;2023-04-15T05:22:21;4.30;;;1.70;;
5199;SDS011;2619;47.868;11.892;2023-04-15T05:24:47;2.33;;;1.30;;
5199;SDS011;2619;47.868;11.892;2023-04-15T05:27:12;3.00;;;1.63;;
5199;SDS011;2619;47.868;11.892;2023-04-15T05:29:38;7.67;;;2.30;;
5199;SDS011;2619;47.868;11.892;2023-04-15T05:32:03;7.17;;;1.50;;
5199;SDS011;2619;47.868;11.892;2023-04-15T05:34:29;2.90;;;1.43;;
5199;SDS011;2619;47.868;11.892;2023-04-15T05:36:55;3.70;;;1.53;;
5199;SDS011;2619;47.868;11.892;2023-04-15T05:39:21;3.50;;;1.63;;
5199;SDS011;2619;47.868;11.892;2023-04-15T05:41:46;7.80;;;1.63;;
5199;SDS011;2619;47.868;11.892;2023-04-15T05:44:12;8.50;;;1.90;;
5199;SDS011;2619;47.868;11.892;2023-04-15T05:46:37;2.53;;;1.40;;
5199;SDS011;2619;47.868;11.892;2023-04-15T05:49:03;3.77;;;1.70;;
5199;SDS011;2619;47.868;11.892;2023-04-15T05:51:28;3.83;;;1.80;;
5199;SDS011;2619;47.868;11.892;2023-04-15T05:53:54;4.10;;;1.60;;
5199;SDS011;2619;47.868;11.892;2023-04-15T05:56:20;8.73;;;2.10;;
5199;SDS011;2619;47.868;11.892;2023-04-15T05:58:46;2.97;;;1.23;;
5199;SDS011;2619;47.868;11.892;2023-04-15T06:01:11;4.07;;;1.60;;
5199;SDS011;2619;47.868;11.892;2023-04-15T06:03:37;7.10;;;1.33;;
5199;SDS011;2619;47.868;11.892;2023-04-15T06:06:03;4.57;;;1.40;;
5199;SDS011;2619;47.868;11.892;2023-04-15T06:08:29;3.73;;;1.77;;
5199;SDS011;2619;47.868;11.892;2023-04-15T06:10:54;2.67;;;1.20;;
5199;SDS011;2619;47.868;11.892;2023-04-15T06:13:20;3.13;;;1.23;;
5199;SDS011;2619;47.868;11.892;2023-04-15T06:15:46;4.90;;;2.13;;
5199;SDS011;2619;47.868;11.892;2023-04-15T06:18:11;7.70;;;1.60;;
5199;SDS011;2619;47.868;11.892;2023-04-15T06:20:37;6.10;;;1.50;;
5199;SDS011;2619;47.868;11.892;2023-04-15T06:23:02;4.10;;;1.33;;
5199;SDS011;2619;47.868;11.892;2023-04-15T06:25:28;6.30;;;1.67;;
5199;SDS011;2619;47.868;11.892;2023-04-15T06:27:54;4.83;;;1.63;;
5199;SDS011;2619;47.868;11.892;2023-04-15T06:30:19;4.00;;;1.23;;
5199;SDS011;2619;47.868;11.892;2023-04-15T06:32:45;7.30;;;1.67;;
5199;SDS011;2619;47.868;11.892;2023-04-15T06:35:11;4.00;;;1.47;;
5199;SDS011;2619;47.868;11.892;2023-04-15T06:37:36;2.63;;;1.37;;
5199;SDS011;2619;47.868;11.892;2023-04-15T06:40:02;3.73;;;1.07;;
5199;SDS011;2619;47.868;11.892;2023-04-15T06:42:29;5.30;;;1.30;;
5199;SDS011;2619;47.868;11.892;2023-04-15T06:44:54;3.90;;;1.40;;
5199;SDS011;2619;47.868;11.892;2023-04-15T06:47:20;4.07;;;1.17;;
5199;SDS011;2619;47.868;11.892;2023-04-15T06:49:46;3.67;;;1.17;;
5199;SDS011;2619;47.868;11.892;2023-04-15T06:52:12;2.70;;;1.57;;
5199;SDS011;2619;47.868;11.892;2023-04-15T06:54:37;2.50;;;1.00;;
5199;SDS011;2619;47.868;11.892;2023-04-15T06:57:03;3.30;;;1.70;;
5199;SDS011;2619;47.868;11.892;2023-04-15T06:59:28;4.03;;;1.20;;
5199;SDS011;2619;47.868;11.892;2023-04-15T07:01:54;8.00;;;1.67;;
5199;SDS011;2619;47.868;11.892;2023-04-15T07:04:20;3.60;;;1.00;;
5199;SDS011;2619;47.868;11.892;2023-04-15T07:06:45;4.10;;;1.20;;
5199;SDS011;2619;47.868;11.892;2023-04-15T07:09:11;4.03;;;1.50;;
5199;SDS011;2619;47.868;11.892;2023-04-15T07:11:36;2.70;;;1.40;;
5199;SDS011;2619;47.868;11.892;2023-04-15T07:14:02;4.40;;;1.50;;
5199;SDS011;2619;47.868;11.892;2023-04-15T07:16:28;2.40;;;1.20;;
5199;SDS011;2619;47.868;11.892;2023-04-15T07:18:53;5.90;;;1.77;;
5199;SDS011;2619;47.868;11.892;2023-04-15T07:21:19;4.67;;;1.60;;
5199;SDS011;2619;47.868;11.892;2023-04-15T07:23:45;6.30;;;1.57;;
5199;SDS011;2619;47.868;11.892;2023-04-15T07:26:11;2.90;;;1.20;;
5199;SDS011;2619;47.868;11.892;2023-04-15T07:28:36;4.90;;;2.00;;
5199;SDS011;2619;47.868;11.892;2023-04-15T07:31:02;4.00;;;2.00;;
5199;SDS011;2619;47.868;11.892;2023-04-15T07:33:28;2.80;;;1.53;;
5199;SDS011;2619;47.868;11.892;2023-04-15T07:35:53;2.73;;;1.20;;
5199;SDS011;2619;47.868;11.892;2023-04-15T07:38:19;3.60;;;1.67;;
5199;SDS011;2619;47.868;11.892;2023-04-15T07:40:45;1.80;;;1.00;;
5199;SDS011;2619;47.868;11.892;2023-04-15T07:43:11;3.40;;;1.33;;
5199;SDS011;2619;47.868;11.892;2023-04-15T07:45:37;4.03;;;1.40;;
5199;SDS011;2619;47.868;11.892;2023-04-15T07:48:03;5.40;;;1.10;;
5199;SDS011;2619;47.868;11.892;2023-04-15T07:50:29;6.00;;;1.90;;
5199;SDS011;2619;47.868;11.892;2023-04-15T07:52:54;3.10;;;1.37;;
5199;SDS011;2619;47.868;11.892;2023-04-15T07:55:20;2.47;;;1.10;;
5199;SDS011;2619;47.868;11.892;2023-04-15T07:57:47;3.53;;;1.40;;
5199;SDS011;2619;47.868;11.892;2023-04-15T08:00:13;2.73;;;1.40;;
5199;SDS011;2619;47.868;11.892;2023-04-15T08:02:40;3.30;;;1.60;;
5199;SDS011;2619;47.868;11.892;2023-04-15T08:05:07;3.20;;;1.30;;
5199;SDS011;2619;47.868;11.892;2023-04-15T08:07:35;2.50;;;1.40;;
5199;SDS011;2619;47.868;11.892;2023-04-15T08:10:01;3.60;;;1.30;;
5199;SDS011;2619;47.868;11.892;2023-04-15T08:12:27;2.10;;;1.00;;
5199;SDS011;2619;47.868;11.892;2023-04-15T08:14:53;5.00;;;1.37;;
5199;SDS011;2619;47.868;11.892;2023-04-15T08:17:19;4.03;;;1.10;;
5199;SDS011;2619;47.868;11.892;2023-04-15T08:19:45;4.73;;;1.30;;
5199;SDS011;2619;47.868;11.892;2023-04-15T08:22:12;5.00;;;1.23;;
5199;SDS011;2619;47.868;11.892;2023-04-15T08:24:38;3.90;;;1.10;;
5199;SDS011;2619;47.868;11.892;2023-04-15T08:27:03;4.40;;;1.40;;
5199;SDS011;2619;47.868;11.892;2023-04-15T08:29:30;3.07;;;1.30;;
5199;SDS011;2619;47.868;11.892;2023-04-15T08:31:56;4.03;;;1.37;;
5199;SDS011;2619;47.868;11.892;2023-04-15T08:34:23;5.53;;;1.50;;
5199;SDS011;2619;47.868;11.892;2023-04-15T08:36:49;2.50;;;1.57;;
5199;SDS011;2619;47.868;11.892;2023-04-15T08:39:14;2.87;;;1.00;;
5199;SDS011;2619;47.868;11.892;2023-04-15T08:41:47;3.77;;;1.90;;
5199;SDS011;2619;47.868;11.892;2023-04-15T08:44:20;4.30;;;1.00;;
5199;SDS011;2619;47.868;11.892;2023-04-15T08:46:48;7.00;;;2.07;;
5199;SDS011;2619;47.868;11.892;2023-04-15T08:49:14;4.17;;;1.83;;
5199;SDS011;2619;47.868;11.892;2023-04-15T08:51:41;2.53;;;1.50;;
5199;SDS011;2619;47.868;11.892;2023-04-15T08:54:07;5.50;;;2.13;;
5199;SDS011;2619;47.868;11.892;2023-04-15T08:56:34;4.23;;;1.50;;
5199;SDS011;2619;47.868;11.892;2023-04-15T08:59:00;2.60;;;1.43;;
5199;SDS011;2619;47.868;11.892;2023-04-15T09:01:27;11.10;;;2.07;;
5199;SDS011;2619;47.868;11.892;2023-04-15T09:03:53;3.17;;;1.63;;
5199;SDS011;2619;47.868;11.892;2023-04-15T09:06:20;3.20;;;1.40;;
5199;SDS011;2619;47.868;11.892;2023-04-15T09:08:47;3.60;;;2.20;;
5199;SDS011;2619;47.868;11.892;2023-04-15T09:11:13;6.60;;;1.70;;
5199;SDS011;2619;47.868;11.892;2023-04-15T09:13:39;3.07;;;1.90;;
5199;SDS011;2619;47.868;11.892;2023-04-15T09:16:05;2.93;;;1.60;;
5199;SDS011;2619;47.868;11.892;2023-04-15T09:18:31;4.30;;;1.80;;
5199;SDS011;2619;47.868;11.892;2023-04-15T09:21:05;4.87;;;1.63;;
5199;SDS011;2619;47.868;11.892;2023-04-15T09:23:53;3.30;;;1.70;;
5199;SDS011;2619;47.868;11.892;2023-04-15T09:26:32;3.33;;;1.80;;
5199;SDS011;2619;47.868;11.892;2023-04-15T09:29:03;3.20;;;1.70;;
5199;SDS011;2619;47.868;11.892;2023-04-15T09:31:33;6.33;;;2.47;;
5199;SDS011;2619;47.868;11.892;2023-04-15T09:34:00;4.33;;;2.07;;
5199;SDS011;2619;47.868;11.892;2023-04-15T09:36:26;4.47;;;2.13;;
5199;SDS011;2619;47.868;11.892;2023-04-15T09:38:56;2.97;;;1.73;;
5199;SDS011;2619;47.868;11.892;2023-04-15T09:41:22;4.47;;;1.90;;
5199;SDS011;2619;47.868;11.892;2023-04-15T09:43:49;5.23;;;2.43;;
5199;SDS011;2619;47.868;11.892;2023-04-15T09:46:15;8.57;;;2.67;;
5199;SDS011;2619;47.868;11.892;2023-04-15T09:48:40;6.43;;;2.80;;
5199;SDS011;2619;47.868;11.892;2023-04-15T09:51:06;4.10;;;1.97;;
5199;SDS011;2619;47.868;11.892;2023-04-15T09:53:33;3.60;;;2.00;;
5199;SDS011;2619;47.868;11.892;2023-04-15T09:56:00;3.80;;;2.30;;
5199;SDS011;2619;47.868;11.892;2023-04-15T09:58:28;3.97;;;2.30;;
5199;SDS011;2619;47.868;11.892;2023-04-15T10:00:56;4.23;;;2.33;;
5199;SDS011;2619;47.868;11.892;2023-04-15T10:03:23;4.37;;;2.37;;
5199;SDS011;2619;47.868;11.892;2023-04-15T10:05:52;4.70;;;2.40;;
5199;SDS011;2619;47.868;11.892;2023-04-15T10:08:20;7.20;;;2.23;;
5199;SDS011;2619;47.868;11.892;2023-04-15T10:10:48;4.10;;;2.40;;
5199;SDS011;2619;47.868;11.892;2023-04-15T10:13:17;7.77;;;2.67;;
5199;SDS011;2619;47.868;11.892;2023-04-15T10:15:46;5.90;;;1.90;;
5199;SDS011;2619;47.868;11.892;2023-04-15T10:18:18;8.57;;;2.67;;
5199;SDS011;2619;47.868;11.892;2023-04-15T10:20:46;5.80;;;2.90;;
5199;SDS011;2619;47.868;11.892;2023-04-15T10:23:12;5.73;;;2.20;;
5199;SDS011;2619;47.868;11.892;2023-04-15T10:25:39;4.83;;;2.43;;
5199;SDS011;2619;47.868;11.892;2023-04-15T10:28:06;4.70;;;2.90;;
5199;SDS011;2619;47.868;11.892;2023-04-15T10:30:35;5.73;;;2.70;;
5199;SDS011;2619;47.868;11.892;2023-04-15T10:33:01;4.83;;;2.67;;
5199;SDS011;2619;47.868;11.892;2023-04-15T10:35:28;4.40;;;2.40;;
5199;SDS011;2619;47.868;11.892;2023-04-15T10:37:56;10.93;;;2.77;;
5199;SDS011;2619;47.868;11.892;2023-04-15T10:42:55;4.87;;;2.67;;
5199;SDS011;2619;47.868;11.892;2023-04-15T10:45:21;3.67;;;2.70;;
5199;SDS011;2619;47.868;11.892;2023-04-15T10:47:55;5.17;;;2.53;;
5199;SDS011;2619;47.868;11.892;2023-04-15T10:50:24;5.60;;;3.30;;
5199;SDS011;2619;47.868;11.892;2023-04-15T10:52:50;4.90;;;2.33;;
5199;SDS011;2619;47.868;11.892;2023-04-15T10:55:21;7.87;;;3.77;;
5199;SDS011;2619;47.868;11.892;2023-04-15T10:57:57;5.43;;;2.63;;
5199;SDS011;2619;47.868;11.892;2023-04-15T11:00:25;3.73;;;2.50;;
5199;SDS011;2619;47.868;11.892;2023-04-15T11:02:57;4.73;;;2.70;;
5199;SDS011;2619;47.868;11.892;2023-04-15T11:08:06;7.23;;;2.50;;
5199;SDS011;2619;47.868;11.892;2023-04-15T11:13:01;5.63;;;2.70;;
5199;SDS011;2619;47.868;11.892;2023-04-15T11:17:58;6.93;;;3.27;;
5199;SDS011;2619;47.868;11.892;2023-04-15T11:20:30;5.90;;;2.87;;
5199;SDS011;2619;47.868;11.892;2023-04-15T11:22:56;4.80;;;2.70;;
5199;SDS011;2619;47.868;11.892;2023-04-15T11:25:26;4.60;;;3.03;;
5199;SDS011;2619;47.868;11.892;2023-04-15T11:27:53;7.77;;;2.80;;
5199;SDS011;2619;47.868;11.892;2023-04-15T11:32:47;4.90;;;2.63;;
5199;SDS011;2619;47.868;11.892;2023-04-15T11:35:19;7.13;;;2.80;;
5199;SDS011;2619;47.868;11.892;2023-04-15T11:37:46;3.37;;;2.63;;
5199;SDS011;2619;47.868;11.892;2023-04-15T11:40:13;4.70;;;2.67;;
5199;SDS011;2619;47.868;11.892;2023-04-15T11:42:41;5.50;;;2.73;;
5199;SDS011;2619;47.868;11.892;2023-04-15T11:45:08;5.17;;;2.77;;
5199;SDS011;2619;47.868;11.892;2023-04-15T11:47:37;4.77;;;2.90;;
5199;SDS011;2619;47.868;11.892;2023-04-15T11:50:20;3.37;;;2.20;;
5199;SDS011;2619;47.868;11.892;2023-04-15T11:55:22;3.93;;;2.50;;
5199;SDS011;2619;47.868;11.892;2023-04-15T11:58:05;5.20;;;2.77;;
5199;SDS011;2619;47.868;11.892;2023-04-15T12:00:48;3.97;;;2.30;;
5199;SDS011;2619;47.868;11.892;2023-04-15T12:06:10;6.03;;;2.80;;
5199;SDS011;2619;47.868;11.892;2023-04-15T12:13:52;4.13;;;2.50;;
5199;SDS011;2619;47.868;11.892;2023-04-15T12:16:20;4.87;;;2.87;;
5199;SDS011;2619;47.868;11.892;2023-04-15T12:18:50;5.03;;;2.83;;
5199;SDS011;2619;47.868;11.892;2023-04-15T12:21:19;6.70;;;2.50;;
5199;SDS011;2619;47.868;11.892;2023-04-15T12:23:47;4.90;;;2.53;;
5199;SDS011;2619;47.868;11.892;2023-04-15T12:26:17;7.63;;;2.30;;
5199;SDS011;2619;47.868;11.892;2023-04-15T12:28:49;5.73;;;2.90;;
5199;SDS011;2619;47.868;11.892;2023-04-15T12:31:28;4.93;;;3.03;;
5199;SDS011;2619;47.868;11.892;2023-04-15T12:33:54;4.40;;;2.13;;
5199;SDS011;2619;47.868;11.892;2023-04-15T12:36:21;5.13;;;2.73;;
5199;SDS011;2619;47.868;11.892;2023-04-15T12:38:47;6.50;;;2.70;;
5199;SDS011;2619;47.868;11.892;2023-04-15T12:41:13;5.23;;;3.03;;
5199;SDS011;2619;47.868;11.892;2023-04-15T12:43:38;7.40;;;2.60;;
5199;SDS011;2619;47.868;11.892;2023-04-15T12:46:04;3.77;;;2.77;;
5199;SDS011;2619;47.868;11.892;2023-04-15T12:48:30;6.43;;;2.63;;
5199;SDS011;2619;47.868;11.892;2023-04-15T12:50:57;9.03;;;3.10;;
5199;SDS011;2619;47.868;11.892;2023-04-15T12:53:22;6.13;;;2.80;;
5199;SDS011;2619;47.868;11.892;2023-04-15T12:55:48;5.03;;;3.20;;
5199;SDS011;2619;47.868;11.892;2023-04-15T12:58:13;4.77;;;2.83;;
5199;SDS011;2619;47.868;11.892;2023-04-15T13:00:39;4.57;;;2.90;;
5199;SDS011;2619;47.868;11.892;2023-04-15T13:03:05;4.70;;;2.93;;
5199;SDS011;2619;47.868;11.892;2023-04-15T13:05:30;7.37;;;3.07;;
5199;SDS011;2619;47.868;11.892;2023-04-15T13:07:56;4.30;;;3.20;;
5199;SDS011;2619;47.868;11.892;2023-04-15T13:10:21;7.83;;;2.73;;
5199;SDS011;2619;47.868;11.892;2023-04-15T13:12:51;6.83;;;4.57;;
5199;SDS011;2619;47.868;11.892;2023-04-15T13:15:17;8.73;;;4.77;;
5199;SDS011;2619;47.868;11.892;2023-04-15T13:17:46;8.20;;;4.40;;
5199;SDS011;2619;47.868;11.892;2023-04-15T13:20:12;6.03;;;4.53;;
5199;SDS011;2619;47.868;11.892;2023-04-15T13:22:38;5.90;;;4.00;;
5199;SDS011;2619;47.868;11.892;2023-04-15T13:25:03;10.17;;;5.13;;
5199;SDS011;2619;47.868;11.892;2023-04-15T13:27:29;7.73;;;4.60;;
5199;SDS011;2619;47.868;11.892;2023-04-15T13:29:55;7.77;;;4.57;;
5199;SDS011;2619;47.868;11.892;2023-04-15T13:32:21;4.47;;;3.20;;
5199;SDS011;2619;47.868;11.892;2023-04-15T13:34:47;6.03;;;3.10;;
5199;SDS011;2619;47.868;11.892;2023-04-15T13:37:12;4.30;;;3.20;;
5199;SDS011;2619;47.868;11.892;2023-04-15T13:39:38;8.70;;;3.30;;
5199;SDS011;2619;47.868;11.892;2023-04-15T13:42:03;5.40;;;3.30;;
5199;SDS011;2619;47.868;11.892;2023-04-15T13:44:29;3.70;;;2.80;;
5199;SDS011;2619;47.868;11.892;2023-04-15T13:46:55;4.30;;;2.30;;
5199;SDS011;2619;47.868;11.892;2023-04-15T13:49:20;4.53;;;3.00;;
5199;SDS011;2619;47.868;11.892;2023-04-15T13:51:46;5.10;;;3.13;;
5199;SDS011;2619;47.868;11.892;2023-04-15T13:54:11;5.03;;;3.10;;
5199;SDS011;2619;47.868;11.892;2023-04-15T13:56:37;5.80;;;3.00;;
5199;SDS011;2619;47.868;11.892;2023-04-15T13:59:02;4.77;;;3.30;;
5199;SDS011;2619;47.868;11.892;2023-04-15T14:01:28;7.33;;;3.33;;
5199;SDS011;2619;47.868;11.892;2023-04-15T14:03:54;5.67;;;3.50;;
5199;SDS011;2619;47.868;11.892;2023-04-15T14:06:20;7.70;;;3.30;;
5199;SDS011;2619;47.868;11.892;2023-04-15T14:08:46;5.70;;;3.40;;
5199;SDS011;2619;47.868;11.892;2023-04-15T14:11:11;4.80;;;3.00;;
5199;SDS011;2619;47.868;11.892;2023-04-15T14:13:37;6.03;;;3.73;;
5199;SDS011;2619;47.868;11.892;2023-04-15T14:16:03;4.80;;;2.63;;
5199;SDS011;2619;47.868;11.892;2023-04-15T14:18:29;5.63;;;3.50;;
5199;SDS011;2619;47.868;11.892;2023-04-15T14:20:54;7.70;;;3.73;;
5199;SDS011;2619;47.868;11.892;2023-04-15T14:23:21;5.23;;;3.43;;
5199;SDS011;2619;47.868;11.892;2023-04-15T14:25:47;7.90;;;3.90;;
5199;SDS011;2619;47.868;11.892;2023-04-15T14:28:12;6.77;;;3.40;;
5199;SDS011;2619;47.868;11.892;2023-04-15T14:30:38;7.00;;;3.50;;
5199;SDS011;2619;47.868;11.892;2023-04-15T14:33:04;7.80;;;3.63;;
5199;SDS011;2619;47.868;11.892;2023-04-15T14:35:30;6.50;;;4.37;;
5199;SDS011;2619;47.868;11.892;2023-04-15T14:37:56;4.80;;;3.50;;
5199;SDS011;2619;47.868;11.892;2023-04-15T14:40:22;5.33;;;3.50;;
5199;SDS011;2619;47.868;11.892;2023-04-15T14:42:47;5.77;;;3.80;;
5199;SDS011;2619;47.868;11.892;2023-04-15T14:45:13;4.33;;;3.60;;
5199;SDS011;2619;47.868;11.892;2023-04-15T14:47:39;7.53;;;3.40;;
5199;SDS011;2619;47.868;11.892;2023-04-15T14:50:04;7.60;;;4.33;;
5199;SDS011;2619;47.868;11.892;2023-04-15T14:52:30;8.23;;;4.73;;
5199;SDS011;2619;47.868;11.892;2023-04-15T14:55:02;7.13;;;4.40;;
5199;SDS011;2619;47.868;11.892;2023-04-15T14:57:31;5.40;;;3.83;;
5199;SDS011;2619;47.868;11.892;2023-04-15T14:59:56;7.90;;;5.07;;
5199;SDS011;2619;47.868;11.892;2023-04-15T15:02:23;7.83;;;4.23;;
5199;SDS011;2619;47.868;11.892;2023-04-15T15:04:49;5.23;;;4.07;;
5199;SDS011;2619;47.868;11.892;2023-04-15T15:07:15;7.53;;;4.40;;
5199;SDS011;2619;47.868;11.892;2023-04-15T15:09:40;5.83;;;3.87;;
5199;SDS011;2619;47.868;11.892;2023-04-15T15:12:06;5.13;;;3.87;;
5199;SDS011;2619;47.868;11.892;2023-04-15T15:14:31;7.10;;;3.80;;
5199;SDS011;2619;47.868;11.892;2023-04-15T15:16:57;7.03;;;3.60;;
5199;SDS011;2619;47.868;11.892;2023-04-15T15:19:23;8.07;;;3.83;;